Time;durP1;ratioP1;P1;durP2;ratioP2;P2;SDS_P1;SDS_P2;PMS_P1;PMS_P2;Temp;Humidity;BMP_temperature;BMP_pressure;BME280_temperature;BME280_humidity;BME280_pressure;Samples;Min_cycle;Max_cycle;Signal;HPM_P1;HPM_P2
2023/03/19 00:01:56;;;;;;;1999.90;999.90;;;;;;;8.25;100.00;94950.59;5085604;28;20210;-61
2023/03/19 00:04:23;;;;;;;1999.90;999.90;;;;;;;8.22;100.00;94943.22;5085568;28;20169;-62
2023/03/19 00:06:49;;;;;;;1999.90;999.90;;;;;;;8.22;100.00;94945.16;5085511;28;20180;-61
2023/03/19 00:09:15;;;;;;;1999.90;999.90;;;;;;;8.22;100.00;94943.22;5085357;28;20239;-62
2023/03/19 00:11:40;;;;;;;1999.90;999.90;;;;;;;8.22;100.00;94943.22;5085836;28;20359;-61
2023/03/19 00:14:05;;;;;;;1999.90;999.90;;;;;;;8.21;100.00;94941.69;5085282;28;20545;-62
2023/03/19 00:16:31;;;;;;;1999.90;999.90;;;;;;;8.18;100.00;94942.44;5085167;28;20176;-63
2023/03/19 00:18:56;;;;;;;1999.90;999.90;;;;;;;8.10;100.00;94935.50;5085219;28;20173;-62
2023/03/19 00:21:22;;;;;;;1999.90;999.90;;;;;;;8.11;100.00;94936.25;5085583;28;20176;-62
2023/03/19 00:23:47;;;;;;;1999.90;999.90;;;;;;;8.09;100.00;94927.75;5085124;28;20211;-62
2023/03/19 00:26:13;;;;;;;1999.90;999.90;;;;;;;8.08;100.00;94929.69;5085499;28;20250;-62
2023/03/19 00:28:38;;;;;;;1999.90;999.90;;;;;;;8.01;100.00;94932.44;5084975;28;20229;-62
2023/03/19 00:31:12;;;;;;;1999.90;999.90;;;;;;;7.98;100.00;94933.22;5085441;28;20180;-62
2023/03/19 00:33:38;;;;;;;1999.90;999.90;;;;;;;7.97;100.00;94928.22;5084971;28;20176;-61
2023/03/19 00:36:05;;;;;;;1999.90;999.90;;;;;;;7.94;100.00;94921.59;5084827;28;20204;-61
2023/03/19 00:38:32;;;;;;;1999.90;999.90;;;;;;;7.94;100.00;94934.44;5084833;28;20199;-62
2023/03/19 00:40:57;;;;;;;1999.90;999.90;;;;;;;7.91;100.00;94927.84;5084753;28;20176;-61
2023/03/19 00:43:23;;;;;;;1999.90;999.90;;;;;;;7.88;100.00;94928.66;5084689;28;20169;-61
2023/03/19 00:45:49;;;;;;;1999.90;999.90;;;;;;;7.85;100.00;94934.88;5084547;28;20173;-61
2023/03/19 00:48:14;;;;;;;1999.90;999.90;;;;;;;7.81;100.00;94939.56;5084489;28;20255;-62
2023/03/19 00:50:39;;;;;;;1999.90;999.90;;;;;;;7.77;100.00;94938.81;5085078;28;20173;-61
2023/03/19 00:53:05;;;;;;;1999.90;999.90;;;;;;;7.73;100.00;94942.69;5085118;28;20169;-61
2023/03/19 00:55:30;;;;;;;1999.90;999.90;;;;;;;7.69;100.00;94937.28;5084386;28;20224;-61
2023/03/19 00:57:56;;;;;;;1999.90;999.90;;;;;;;7.63;100.00;94932.66;5084441;28;20179;-61
2023/03/19 01:00:22;;;;;;;1999.90;999.90;;;;;;;7.57;100.00;94928.81;5083989;28;20182;-61
2023/03/19 01:02:47;;;;;;;1999.90;999.90;;;;;;;7.49;100.00;94941.63;5084907;28;20172;-62
2023/03/19 01:05:13;;;;;;;1999.90;999.90;;;;;;;7.40;100.00;94935.09;5084300;28;20161;-62
2023/03/19 01:07:38;;;;;;;1999.90;999.90;;;;;;;7.25;100.00;94930.88;5084113;28;20206;-62
2023/03/19 01:10:04;;;;;;;1999.90;999.90;;;;;;;7.18;100.00;94928.97;5084434;28;20180;-62
2023/03/19 01:12:29;;;;;;;1999.90;999.90;;;;;;;7.20;100.00;94923.09;5084133;28;20165;-62
2023/03/19 01:14:55;;;;;;;1999.90;999.90;;;;;;;7.18;100.00;94928.97;5084131;28;20168;-62
2023/03/19 01:17:20;;;;;;;1999.90;999.90;;;;;;;7.16;100.00;94933.22;5084110;28;20180;-62
2023/03/19 01:19:46;;;;;;;1999.90;999.90;;;;;;;7.06;100.00;94931.31;5084100;28;20172;-62
2023/03/19 01:22:13;;;;;;;1999.90;999.90;;;;;;;7.00;100.00;94925.50;5084026;28;20173;-63
2023/03/19 01:24:38;;;;;;;1999.90;999.90;;;;;;;6.99;100.00;94912.34;5084571;28;20190;-62
2023/03/19 01:27:03;;;;;;;1999.90;999.90;;;;;;;7.01;100.00;94913.47;5083510;28;20442;-62
2023/03/19 01:29:29;;;;;;;1999.90;999.90;;;;;;;6.97;100.00;94912.72;5084269;28;20358;-62
2023/03/19 01:31:55;;;;;;;1999.90;999.90;;;;;;;6.90;100.00;94907.31;5083700;28;20177;-62
2023/03/19 01:34:20;;;;;;;1999.90;999.90;;;;;;;6.84;100.00;94904.22;5083794;28;20172;-62
2023/03/19 01:36:45;;;;;;;1999.90;999.90;;;;;;;6.85;100.00;94915.84;5083848;28;20335;-62
2023/03/19 01:39:11;;;;;;;1999.90;999.90;;;;;;;6.81;100.00;94912.34;5083899;28;20360;-62
2023/03/19 01:41:36;;;;;;;1999.90;999.90;;;;;;;6.82;100.00;94911.22;5084102;28;20178;-63
2023/03/19 01:44:02;;;;;;;1999.90;999.90;;;;;;;6.83;100.00;94902.69;5083825;28;20399;-62
2023/03/19 01:46:35;;;;;;;1999.90;999.90;;;;;;;6.80;100.00;94897.25;5083803;28;20173;-62
2023/03/19 01:49:05;;;;;;;1999.90;999.90;;;;;;;6.78;100.00;94894.16;5084262;28;20221;-62
2023/03/19 01:51:36;;;;;;;1999.90;999.90;;;;;;;6.71;100.00;94896.88;5084372;28;20345;-62
2023/03/19 01:54:06;;;;;;;1999.90;999.90;;;;;;;6.60;100.00;94890.69;5084110;28;20198;-63
2023/03/19 01:56:33;;;;;;;1999.90;999.90;;;;;;;6.64;100.00;94889.50;5083240;28;20179;-65
2023/03/19 01:59:24;;;;;;;1999.90;999.90;;;;;;;6.70;100.00;94892.59;5083996;28;20497;-62
2023/03/19 02:02:00;;;;;;;1999.90;999.90;;;;;;;6.69;100.00;94880.22;5083982;28;20212;-62
2023/03/19 02:04:27;;;;;;;1999.90;999.90;;;;;;;6.68;100.00;94884.88;5083568;28;20173;-62
2023/03/19 02:06:55;;;;;;;1999.90;999.90;;;;;;;6.68;100.00;94884.09;5083287;28;20183;-63
2023/03/19 02:09:22;;;;;;;1999.90;999.90;;;;;;;6.62;100.00;94886.44;5084099;28;20178;-62
2023/03/19 02:11:49;;;;;;;1999.90;999.90;;;;;;;6.59;100.00;94883.72;5084108;28;20364;-62
2023/03/19 02:14:15;;;;;;;1999.90;999.90;;;;;;;6.52;100.00;94889.16;5083497;28;20180;-62
2023/03/19 02:16:40;;;;;;;1999.90;999.90;;;;;;;6.53;100.00;94888.00;5084038;28;20196;-62
2023/03/19 02:19:11;;;;;;;1999.90;999.90;;;;;;;6.55;100.00;94880.22;5083507;28;20213;-62
2023/03/19 02:21:36;;;;;;;1999.90;999.90;;;;;;;6.57;100.00;94878.69;5083695;28;20168;-62
2023/03/19 02:24:16;;;;;;;1999.90;999.90;;;;;;;6.58;100.00;94863.19;5083996;28;20203;-62
2023/03/19 02:26:42;;;;;;;1999.90;999.90;;;;;;;6.48;100.00;94853.13;5083885;28;20422;-63
2023/03/19 02:29:10;;;;;;;1999.90;999.90;;;;;;;6.46;100.00;94855.47;5083335;28;20231;-63
2023/03/19 02:31:35;;;;;;;1999.90;999.90;;;;;;;6.45;100.00;94853.91;5083915;28;20172;-63
2023/03/19 02:34:03;;;;;;;1999.90;999.90;;;;;;;6.40;100.00;94848.88;5083825;28;20246;-62
2023/03/19 02:36:41;;;;;;;1999.90;999.90;;;;;;;6.38;100.00;94843.09;5083827;28;20182;-62
2023/03/19 02:39:12;;;;;;;1999.90;999.90;;;;;;;6.37;100.00;94836.88;5083925;28;20183;-63
2023/03/19 02:41:40;;;;;;;1999.90;999.90;;;;;;;6.36;100.00;94846.19;5083346;28;20184;-62
2023/03/19 02:44:10;;;;;;;1999.90;999.90;;;;;;;6.36;100.00;94845.38;5083273;28;20176;-62
2023/03/19 02:46:35;;;;;;;1999.90;999.90;;;;;;;6.35;100.00;94860.13;5083712;28;20172;-63
2023/03/19 02:49:01;;;;;;;1999.90;999.90;;;;;;;6.36;100.00;94856.25;5083167;28;20210;-63
2023/03/19 02:51:26;;;;;;;1999.90;999.90;;;;;;;6.37;100.00;94855.06;5083101;28;20226;-63
2023/03/19 02:53:51;;;;;;;1999.90;999.90;;;;;;;6.37;100.00;94864.00;5083444;28;20263;-63
2023/03/19 02:56:17;;;;;;;1999.90;999.90;;;;;;;6.36;100.00;94853.53;5083326;28;20382;-63
2023/03/19 02:58:42;;;;;;;1999.90;999.90;;;;;;;6.37;100.00;94852.34;5083401;28;20208;-63
2023/03/19 03:01:07;;;;;;;1999.90;999.90;;;;;;;6.38;100.00;94841.13;5083150;28;20179;-62
2023/03/19 03:03:33;;;;;;;1999.90;999.90;;;;;;;6.38;100.00;94840.38;5083534;28;20161;-65
2023/03/19 03:05:58;;;;;;;1999.90;999.90;;;;;;;6.37;100.00;94846.94;5083149;28;20169;-64
2023/03/19 03:08:24;;;;;;;1999.90;999.90;;;;;;;6.36;100.00;94845.38;5084360;28;20200;-64
2023/03/19 03:10:49;;;;;;;1999.90;999.90;;;;;;;6.19;100.00;94840.75;5086595;28;20175;-64
2023/03/19 03:13:15;;;;;;;1999.90;999.90;;;;;;;6.18;100.00;94847.34;5086505;28;20164;-65
2023/03/19 03:15:40;;;;;;;1999.90;999.90;;;;;;;6.18;100.00;94839.22;5086524;28;20212;-63
2023/03/19 03:18:05;;;;;;;1999.90;999.90;;;;;;;6.21;100.00;94822.19;5086436;28;20168;-64
2023/03/19 03:20:32;;;;;;;1999.90;999.90;;;;;;;6.21;100.00;94822.97;5086668;28;20172;-63
2023/03/19 03:22:57;;;;;;;1999.90;999.90;;;;;;;6.22;100.00;94823.72;5086336;28;20232;-63
2023/03/19 03:25:22;;;;;;;1999.90;999.90;;;;;;;6.25;100.00;94806.69;5086340;28;20161;-65
2023/03/19 03:27:48;;;;;;;1999.90;999.90;;;;;;;6.25;100.00;94812.09;5086163;28;20217;-63
2023/03/19 03:30:15;;;;;;;1999.90;999.90;;;;;;;6.26;100.00;94805.50;5086128;28;20173;-64
2023/03/19 03:32:41;;;;;;;1999.90;999.90;;;;;;;6.27;100.00;94801.66;5086077;28;20290;-64
2023/03/19 03:35:07;;;;;;;1999.90;999.90;;;;;;;6.41;100.00;94799.69;5086129;28;20177;-65
2023/03/19 03:37:32;;;;;;;1999.90;999.90;;;;;;;6.41;100.00;94815.94;5086017;28;20177;-64
2023/03/19 03:39:58;;;;;;;1999.90;999.90;;;;;;;6.39;100.00;94821.00;5086107;28;20179;-65
2023/03/19 03:42:24;;;;;;;1999.90;999.90;;;;;;;6.40;100.00;94824.47;5085981;28;20179;-64
2023/03/19 03:44:49;;;;;;;1999.90;999.90;;;;;;;6.39;100.00;94833.78;5085994;28;20172;-65
2023/03/19 03:47:16;;;;;;;1999.90;999.90;;;;;;;6.38;100.00;94843.09;5086076;28;20201;-68
2023/03/19 03:49:42;;;;;;;1999.90;999.90;;;;;;;6.40;100.00;94846.16;5086210;28;20185;-65
2023/03/19 03:52:08;;;;;;;1999.90;999.90;;;;;;;6.39;100.00;94852.75;5086366;28;20169;-65
2023/03/19 03:54:33;;;;;;;1999.90;999.90;;;;;;;6.41;100.00;94843.06;5085346;28;20199;-65
2023/03/19 03:56:58;;;;;;;1999.90;999.90;;;;;;;6.43;100.00;94850.81;5086266;28;20172;-64
2023/03/19 03:59:24;;;;;;;1999.90;999.90;;;;;;;6.45;100.00;94851.22;5085918;28;20172;-64
2023/03/19 04:01:50;;;;;;;1999.90;999.90;;;;;;;6.48;100.00;94853.13;5086089;28;20173;-65
2023/03/19 04:04:15;;;;;;;1999.90;999.90;;;;;;;6.49;100.00;94849.25;5085600;28;20247;-66
2023/03/19 04:06:41;;;;;;;1999.90;999.90;;;;;;;6.49;100.00;94846.56;5085566;28;20522;-64
2023/03/19 04:09:06;;;;;;;1999.90;999.90;;;;;;;6.48;100.00;94847.69;5085346;28;20396;-63
2023/03/19 04:11:32;;;;;;;1999.90;999.90;;;;;;;6.47;100.00;94857.00;5085808;28;20234;-64
2023/03/19 04:13:57;;;;;;;1999.90;999.90;;;;;;;6.49;100.00;94854.69;5085387;28;20419;-64
2023/03/19 04:16:23;;;;;;;1999.90;999.90;;;;;;;6.52;100.00;94856.63;5085274;28;20169;-64
2023/03/19 04:18:49;;;;;;;1999.90;999.90;;;;;;;6.54;100.00;94851.56;5084872;28;20218;-64
2023/03/19 04:21:14;;;;;;;1999.90;999.90;;;;;;;6.51;100.00;94857.75;5084961;28;20203;-65
2023/03/19 04:23:40;;;;;;;1999.90;999.90;;;;;;;6.51;100.00;94860.47;5085695;28;20172;-64
2023/03/19 04:26:06;;;;;;;1999.90;999.90;;;;;;;6.51;100.00;94863.19;5085101;28;20250;-65
2023/03/19 04:28:32;;;;;;;1999.90;999.90;;;;;;;6.50;100.00;94861.66;5084880;28;20236;-64
2023/03/19 04:31:04;;;;;;;1999.90;999.90;;;;;;;6.54;100.00;94868.63;5084949;28;20171;-64
2023/03/19 04:33:30;;;;;;;1999.90;999.90;;;;;;;6.56;100.00;94860.09;5084927;28;20218;-63
2023/03/19 04:35:56;;;;;;;1999.90;999.90;;;;;;;6.59;100.00;94859.28;5084872;28;20172;-63
2023/03/19 04:38:22;;;;;;;1999.90;999.90;;;;;;;6.60;100.00;94874.44;5084888;28;20282;-63
2023/03/19 04:40:48;;;;;;;1999.90;999.90;;;;;;;6.62;100.00;94877.50;5084985;28;20165;-63
2023/03/19 04:43:14;;;;;;;1999.90;999.90;;;;;;;6.64;100.00;94883.34;5084879;28;20213;-62
2023/03/19 04:45:40;;;;;;;1999.90;999.90;;;;;;;6.66;100.00;94880.97;5085476;28;20203;-62
2023/03/19 04:48:05;;;;;;;1999.90;999.90;;;;;;;6.66;100.00;94889.13;5084719;28;20221;-62
2023/03/19 04:50:31;;;;;;;1999.90;999.90;;;;;;;6.65;100.00;94895.72;5085425;28;20166;-63
2023/03/19 04:52:56;;;;;;;1999.90;999.90;;;;;;;6.67;100.00;94898.84;5084877;28;20338;-64
2023/03/19 04:55:22;;;;;;;1999.90;999.90;;;;;;;6.68;100.00;94900.38;5084457;28;20382;-62
2023/03/19 04:57:47;;;;;;;1999.90;999.90;;;;;;;6.70;100.00;94903.44;5085048;28;20172;-62
2023/03/19 05:00:15;;;;;;;1999.90;999.90;;;;;;;6.69;100.00;94897.28;5084475;28;20169;-62
2023/03/19 05:02:41;;;;;;;1999.90;999.90;;;;;;;6.71;100.00;94900.34;5084090;28;20211;-61
2023/03/19 05:05:08;;;;;;;1999.90;999.90;;;;;;;6.71;100.00;94907.72;5084822;28;20226;-62
2023/03/19 05:07:33;;;;;;;1999.90;999.90;;;;;;;6.76;100.00;94899.19;5084638;28;20209;-62
2023/03/19 05:09:58;;;;;;;1999.90;999.90;;;;;;;6.76;100.00;94904.63;5083976;28;20182;-62
2023/03/19 05:12:24;;;;;;;1999.90;999.90;;;;;;;6.76;100.00;94904.63;5084619;28;20168;-62
2023/03/19 05:14:50;;;;;;;1999.90;999.90;;;;;;;6.82;100.00;94901.09;5084673;28;20172;-61
2023/03/19 05:17:15;;;;;;;1999.90;999.90;;;;;;;6.85;100.00;94908.47;5084295;28;20235;-63
2023/03/19 05:19:42;;;;;;;1999.90;999.90;;;;;;;6.90;100.00;94907.31;5084134;28;20169;-62
2023/03/19 05:22:07;;;;;;;1999.90;999.90;;;;;;;6.88;100.00;94904.97;5084133;28;20168;-61
2023/03/19 05:24:33;;;;;;;1999.90;999.90;;;;;;;6.96;100.00;94905.75;5084532;28;20350;-61
2023/03/19 05:26:58;;;;;;;1999.90;999.90;;;;;;;7.05;100.00;94906.09;5084684;28;20203;-62
2023/03/19 05:29:24;;;;;;;1999.90;999.90;;;;;;;7.12;100.00;94908.78;5083925;28;20185;-61
2023/03/19 05:31:50;;;;;;;1999.90;999.90;;;;;;;7.21;100.00;94916.53;5083143;28;20454;-61
2023/03/19 05:34:15;;;;;;;1999.90;999.90;;;;;;;7.24;100.00;94927.38;5084430;28;20180;-61
2023/03/19 05:36:41;;;;;;;1999.90;999.90;;;;;;;7.31;100.00;94932.00;5084205;28;20419;-62
2023/03/19 05:39:07;;;;;;;1999.90;999.90;;;;;;;7.39;100.00;94945.16;5084478;28;20184;-62
2023/03/19 05:41:32;;;;;;;1999.90;999.90;;;;;;;7.48;100.00;94948.25;5083467;28;20244;-62
2023/03/19 05:43:57;;;;;;;1999.90;999.90;;;;;;;7.59;100.00;94953.63;5084378;28;20173;-62
2023/03/19 05:46:23;;;;;;;1999.90;999.90;;;;;;;7.74;100.00;94969.47;5083856;28;20184;-61
2023/03/19 05:48:49;;;;;;;1999.90;999.90;;;;;;;7.84;100.00;94976.03;5083813;28;20212;-61
2023/03/19 05:51:14;;;;;;;1999.90;999.90;;;;;;;7.96;100.00;94989.97;5084186;28;20252;-61
2023/03/19 05:53:40;;;;;;;1999.90;999.90;;;;;;;8.09;100.00;95001.16;5084055;28;20416;-61
2023/03/19 05:56:05;;;;;;;1999.90;999.90;;;;;;;8.23;100.00;95007.31;5084259;28;20219;-61
2023/03/19 05:58:30;;;;;;;1999.90;999.90;;;;;;;8.37;100.00;95015.41;5083659;28;20230;-63
2023/03/19 06:00:56;;;;;;;1999.90;999.90;;;;;;;8.50;100.00;95026.59;5083675;28;20369;-60
2023/03/19 06:03:22;;;;;;;1999.90;999.90;;;;;;;8.60;100.00;95040.13;5084387;28;20173;-62
2023/03/19 06:05:49;;;;;;;1999.90;999.90;;;;;;;8.72;100.00;95041.59;5083682;28;20177;-61
2023/03/19 06:08:14;;;;;;;1999.90;999.90;;;;;;;8.81;100.00;95045.44;5083572;28;20201;-61
2023/03/19 06:10:40;;;;;;;1999.90;999.90;;;;;;;8.92;100.00;95058.94;5083565;28;20194;-61
2023/03/19 06:13:06;;;;;;;1999.90;999.90;;;;;;;9.01;100.00;95068.25;5084070;28;20236;-62
2023/03/19 06:15:32;;;;;;;1999.90;999.90;;;;;;;9.06;100.00;95077.91;5084242;28;20177;-63
2023/03/19 06:17:57;;;;;;;1999.90;999.90;;;;;;;9.12;100.00;95088.00;5083676;28;20407;-62
2023/03/19 06:20:22;;;;;;;1999.90;999.90;;;;;;;9.18;100.00;95091.81;5083950;28;20177;-62
2023/03/19 06:22:48;;;;;;;1999.90;999.90;;;;;;;9.29;100.00;95100.69;5083696;28;20177;-61
2023/03/19 06:25:13;;;;;;;1999.90;999.90;;;;;;;9.33;100.00;95104.16;5084199;28;20178;-60
2023/03/19 06:27:39;;;;;;;1999.90;999.90;;;;;;;9.37;100.00;95110.34;5083178;28;20512;-62
2023/03/19 06:30:06;;;;;;;1999.90;999.90;;;;;;;9.47;100.00;95120.38;5083078;28;20227;-61
2023/03/19 06:32:31;;;;;;;1999.90;999.90;;;;;;;9.50;100.00;95119.59;5083356;28;20247;-62
2023/03/19 06:34:57;;;;;;;1999.90;999.90;;;;;;;9.60;100.00;95131.56;5083304;28;20366;-60
2023/03/19 06:37:22;;;;;;;1999.90;999.90;;;;;;;9.64;100.00;95141.28;5083353;28;20178;-61
2023/03/19 06:39:48;;;;;;;1999.90;999.90;;;;;;;9.68;100.00;95144.75;5083799;28;20182;-60
2023/03/19 06:42:16;;;;;;;1999.90;999.90;;;;;;;9.80;100.00;95155.16;5084958;28;20185;-64
2023/03/19 06:44:41;;;;;;;1999.90;999.90;;;;;;;9.79;100.00;95153.59;5087473;28;20212;-65
2023/03/19 06:47:07;;;;;;;1999.90;999.90;;;;;;;9.87;100.00;95155.09;5087441;28;20175;-63
2023/03/19 06:49:32;;;;;;;1999.90;999.90;;;;;;;9.85;100.00;95162.91;5086941;28;20220;-64
2023/03/19 06:51:58;;;;;;;1999.90;999.90;;;;;;;9.93;100.00;95158.94;5086964;28;20362;-64
2023/03/19 06:54:23;;;;;;;1999.90;999.90;;;;;;;9.94;100.00;95171.38;5087086;28;20259;-59
2023/03/19 06:56:48;;;;;;;1999.90;999.90;;;;;;;9.96;100.00;95165.53;5086910;28;20208;-60
2023/03/19 06:59:14;;;;;;;1999.90;999.90;;;;;;;9.99;100.00;95162.75;5086686;28;20357;-60
2023/03/19 07:01:40;;;;;;;1999.90;999.90;;;;;;;10.02;100.00;95164.66;5086814;28;20171;-60
2023/03/19 07:04:07;;;;;;;1999.90;999.90;;;;;;;10.03;100.00;95179.84;5086782;28;20171;-60
2023/03/19 07:06:33;;;;;;;1999.90;999.90;;;;;;;9.99;100.00;95187.28;5086652;28;20172;-60
2023/03/19 07:08:59;;;;;;;1999.90;999.90;;;;;;;10.01;100.00;95182.22;5086569;28;20510;-60
2023/03/19 07:11:24;;;;;;;1999.90;999.90;;;;;;;9.96;100.00;95185.41;5086284;28;20180;-64
2023/03/19 07:13:50;;;;;;;1999.90;999.90;;;;;;;9.94;100.00;95187.75;5087098;28;20175;-63
2023/03/19 07:16:15;;;;;;;1999.90;999.90;;;;;;;9.92;100.00;95179.19;5087287;28;20191;-63
2023/03/19 07:18:40;;;;;;;1999.90;999.90;;;;;;;9.89;100.00;95185.47;5086997;28;20183;-63
2023/03/19 07:21:06;;;;;;;1999.90;999.90;;;;;;;9.94;100.00;95187.75;5086683;28;20180;-62
2023/03/19 07:23:31;;;;;;;1999.90;999.90;;;;;;;9.97;100.00;95195.13;5086364;28;20370;-60
2023/03/19 07:25:57;;;;;;;1999.90;999.90;;;;;;;10.09;100.00;95196.59;5086378;28;20350;-62
2023/03/19 07:28:22;;;;;;;1999.90;999.90;;;;;;;10.17;100.00;95198.09;5086182;28;20226;-61
2023/03/19 07:30:51;;;;;;;1999.90;999.90;;;;;;;10.28;100.00;95211.63;5086195;28;20212;-63
2023/03/19 07:33:16;;;;;;;1999.90;999.90;;;;;;;10.39;100.00;95213.06;5086622;28;20196;-63
2023/03/19 07:35:41;;;;;;;1999.90;999.90;;;;;;;10.47;100.00;95219.22;5086205;28;20175;-61
2023/03/19 07:38:07;;;;;;;1999.90;999.90;;;;;;;10.44;100.00;95223.53;5086119;28;20238;-62
2023/03/19 07:40:32;;;;;;;1999.90;999.90;;;;;;;10.46;100.00;95234.84;5086113;28;20178;-61
2023/03/19 07:42:57;;;;;;;1999.90;999.90;;;;;;;10.50;100.00;95242.97;5086448;28;20183;-60
2023/03/19 07:45:23;;;;;;;1999.90;999.90;;;;;;;10.57;100.00;95240.16;5085917;28;20199;-60
2023/03/19 07:47:49;;;;;;;1999.90;999.90;;;;;;;10.57;100.00;95240.16;5085814;28;20203;-61
2023/03/19 07:50:15;;;;;;;1999.90;999.90;;;;;;;10.58;100.00;95247.19;5086430;28;20176;-62
2023/03/19 07:52:40;;;;;;;1999.90;999.90;;;;;;;10.70;100.00;95246.69;5085797;28;20182;-64
2023/03/19 07:55:06;;;;;;;1999.90;999.90;;;;;;;10.75;100.00;95249.72;5085650;28;20219;-63
2023/03/19 07:57:31;;;;;;;1999.90;999.90;;;;;;;10.81;100.00;95242.63;5085633;28;20179;-63
2023/03/19 07:59:57;;;;;;;1999.90;999.90;;;;;;;10.88;100.00;95256.19;5085886;28;20194;-63
2023/03/19 08:02:23;;;;;;;1999.90;999.90;;;;;;;10.98;100.00;95260.00;5085634;28;20199;-63
2023/03/19 08:04:48;;;;;;;1999.90;999.90;;;;;;;11.04;100.00;95252.91;5085604;28;20176;-63
2023/03/19 08:07:14;;;;;;;1999.90;999.90;;;;;;;10.99;100.00;95251.38;5085657;28;20172;-64
2023/03/19 08:09:40;;;;;;;1999.90;999.90;;;;;;;11.04;100.00;95250.91;5086123;28;20237;-63
2023/03/19 08:12:06;;;;;;;1999.90;999.90;;;;;;;11.12;100.00;95254.34;5085972;28;20183;-63
2023/03/19 08:14:32;;;;;;;1999.90;999.90;;;;;;;11.14;100.00;95247.28;5085686;28;20169;-64
2023/03/19 08:16:58;;;;;;;1999.90;999.90;;;;;;;11.16;100.00;95249.63;5085364;28;20198;-63
2023/03/19 08:19:23;;;;;;;1999.90;999.90;;;;;;;11.14;100.00;95257.47;5085535;28;20195;-64
2023/03/19 08:21:49;;;;;;;1999.90;999.90;;;;;;;11.16;100.00;95255.06;5085256;28;20221;-63
2023/03/19 08:24:14;;;;;;;1999.90;999.90;;;;;;;11.17;100.00;95256.63;5085297;28;20169;-61
2023/03/19 08:26:39;;;;;;;1999.90;999.90;;;;;;;11.19;100.00;95243.34;5085166;28;20175;-63
2023/03/19 08:29:05;;;;;;;1999.90;999.90;;;;;;;11.30;100.00;95249.44;5084858;28;20227;-62
2023/03/19 08:31:31;;;;;;;1999.90;999.90;;;;;;;11.29;100.00;95250.63;5085008;28;20168;-63
2023/03/19 08:33:59;;;;;;;1999.90;999.90;;;;;;;11.23;100.00;95249.53;5085519;28;20199;-63
2023/03/19 08:36:25;;;;;;;1999.90;999.90;;;;;;;11.19;100.00;95254.25;5085386;28;20210;-63
2023/03/19 08:38:53;;;;;;;1999.90;999.90;;;;;;;11.17;100.00;95246.47;5085010;28;20169;-63
2023/03/19 08:41:22;;;;;;;1999.90;999.90;;;;;;;11.13;100.00;95245.75;5084844;28;20168;-63
2023/03/19 08:43:48;;;;;;;1999.90;999.90;;;;;;;11.20;100.00;95253.84;5085406;28;20186;-64
2023/03/19 08:46:15;;;;;;;1999.90;999.90;;;;;;;11.23;100.00;95252.25;5084803;28;20165;-62
2023/03/19 08:48:40;;;;;;;1999.90;999.90;;;;;;;11.27;100.00;95255.72;5084537;28;20205;-62
2023/03/19 08:51:05;;;;;;;1999.90;999.90;;;;;;;11.23;100.00;95255.00;5085222;28;20172;-62
2023/03/19 08:53:32;;;;;;;1999.90;999.90;;;;;;;11.27;100.00;95255.72;5084466;28;20195;-63
2023/03/19 08:56:00;;;;;;;1999.90;999.90;;;;;;;11.30;100.00;95260.38;5084594;28;20165;-63
2023/03/19 08:58:27;;;;;;;1999.90;999.90;;;;;;;11.30;100.00;95265.84;5084614;28;20161;-63
2023/03/19 09:00:53;;;;;;;1999.90;999.90;;;;;;;11.41;100.00;95267.25;5085042;28;20169;-63
2023/03/19 09:03:19;;;;;;;1999.90;999.90;;;;;;;11.51;100.00;95271.03;5084896;28;20171;-62
2023/03/19 09:05:45;;;;;;;1999.90;999.90;;;;;;;11.69;100.00;95277.06;5084328;28;20187;-61
2023/03/19 09:08:11;;;;;;;1999.90;999.90;;;;;;;11.82;100.00;95284.28;5084343;28;20219;-62
2023/03/19 09:10:37;;;;;;;1999.90;999.90;;;;;;;12.03;100.00;95291.38;5084835;28;20526;-62
2023/03/19 09:13:03;;;;;;;1999.90;999.90;;;;;;;12.09;100.00;95295.22;5084367;28;20252;-62
2023/03/19 09:15:28;;;;;;;1999.90;999.90;;;;;;;12.16;100.00;95300.53;5084301;28;20168;-63
2023/03/19 09:17:54;;;;;;;1999.90;999.90;;;;;;;12.26;100.00;95305.09;5083871;28;20165;-63
2023/03/19 09:20:20;;;;;;;1999.90;999.90;;;;;;;12.29;100.00;95309.75;5083777;28;20169;-63
2023/03/19 09:22:45;;;;;;;1999.90;999.90;;;;;;;12.41;100.00;95307.19;5084479;28;20512;-63
2023/03/19 09:25:10;;;;;;;1999.90;999.90;;;;;;;12.65;100.00;95310.69;5084063;28;20184;-63
2023/03/19 09:27:36;;;;;;;1999.90;999.90;;;;;;;13.02;100.00;95313.16;5083587;28;20241;-63
2023/03/19 09:30:02;;;;;;;1999.90;999.90;;;;;;;13.32;100.00;95318.44;5084639;28;20314;-63
2023/03/19 09:32:27;;;;;;;1999.90;999.90;;;;;;;13.62;100.00;95323.69;5083964;28;20256;-63
2023/03/19 09:34:53;;;;;;;1999.90;999.90;;;;;;;13.86;100.00;95327.13;5084391;28;20169;-63
2023/03/19 09:37:18;;;;;;;1999.90;999.90;;;;;;;14.00;100.00;95338.56;5083773;28;20169;-63
2023/03/19 09:39:44;;;;;;;1999.90;999.90;;;;;;;14.04;100.00;95347.50;5083913;28;20177;-63
2023/03/19 09:42:31;;;;;;;1999.90;999.90;;;;;;;14.04;100.00;95339.25;5084402;28;20169;-63
2023/03/19 09:44:57;;;;;;;1999.90;999.90;;;;;;;13.95;100.00;95346.53;5083849;28;20244;-63
2023/03/19 09:47:34;;;;;;;1999.90;999.90;;;;;;;13.92;100.00;95342.69;5083756;28;20200;-64
2023/03/19 09:50:13;;;;;;;1999.90;999.90;;;;;;;13.79;100.00;95361.00;5083802;28;20187;-64
2023/03/19 09:53:12;;;;;;;1999.90;999.90;;;;;;;13.58;100.00;95355.94;5084119;28;20161;-64
2023/03/19 09:55:46;;;;;;;1999.90;999.90;;;;;;;13.68;100.00;95354.94;5084640;28;20161;-64
2023/03/19 09:58:17;;;;;;;1999.90;999.90;;;;;;;13.69;100.00;95350.25;5084177;28;20168;-63
2023/03/19 10:00:47;;;;;;;1999.90;999.90;;;;;;;13.62;100.00;95359.38;5083415;28;20176;-63
2023/03/19 10:03:19;;;;;;;1999.90;999.90;;;;;;;13.55;100.00;95356.78;5084275;28;20161;-63
2023/03/19 10:06:22;;;;;;;1999.90;999.90;;;;;;;13.62;100.00;95356.63;5083719;28;20192;-62
2023/03/19 10:09:21;;;;;;;1999.90;999.90;;;;;;;13.59;100.00;95357.50;5083524;28;20276;-62
2023/03/19 10:12:08;;;;;;;1999.90;999.90;;;;;;;13.80;100.00;95351.56;5083823;28;20467;-63
2023/03/19 10:14:59;;;;;;;1999.90;999.90;;;;;;;13.86;100.00;95354.56;5084084;28;20165;-63
2023/03/19 10:17:41;;;;;;;1999.90;999.90;;;;;;;13.99;100.00;95347.22;5085085;28;20177;-64
2023/03/19 10:20:21;;;;;;;1999.90;999.90;;;;;;;14.26;100.00;95351.34;5088153;28;20198;-62
2023/03/19 10:22:50;;;;;;;1999.90;999.90;;;;;;;14.69;100.00;95343.63;5088203;28;20242;-63
2023/03/19 10:25:23;;;;;;;1999.90;999.90;;;;;;;14.74;100.00;95343.09;5088065;28;20169;-63
2023/03/19 10:28:00;;;;;;;1999.90;999.90;;;;;;;14.89;100.00;95341.53;5087347;28;20270;-63
2023/03/19 10:30:27;;;;;;;1999.90;999.90;;;;;;;15.06;100.00;95347.78;5088022;28;20211;-64
2023/03/19 10:33:21;;;;;;;1999.90;999.90;;;;;;;15.27;100.00;95344.47;5087846;28;20174;-64
2023/03/19 10:35:54;;;;;;;1999.90;999.90;;;;;;;15.36;100.00;95345.41;5087561;28;20161;-62
2023/03/19 10:38:24;;;;;;;1999.90;999.90;;;;;;;15.56;100.00;95343.28;5087853;28;20225;-62
2023/03/19 10:41:10;;;;;;;1999.90;999.90;;;;;;;15.53;100.00;95337.88;5087738;28;20173;-62
2023/03/19 10:43:36;;;;;;;1999.90;999.90;;;;;;;15.49;100.00;95354.50;5086795;28;20169;-64
2023/03/19 10:46:01;;;;;;;1999.90;999.90;;;;;;;15.21;100.00;95346.19;5086802;28;20172;-64
2023/03/19 10:48:29;;;;;;;1999.90;999.90;;;;;;;14.99;100.00;95348.75;5086931;28;20193;-64
2023/03/19 10:51:00;;;;;;;1999.90;999.90;;;;;;;14.77;100.00;95347.75;5087058;28;20242;-62
2023/03/19 10:53:39;;;;;;;1999.90;999.90;;;;;;;14.76;100.00;95340.72;5087309;28;20168;-63